Time;durP1;ratioP1;P1;durP2;ratioP2;P2;SDS_P1;SDS_P2;PMS_P1;PMS_P2;Temp;Humidity;BMP_temperature;BMP_pressure;BME280_temperature;BME280_humidity;BME280_pressure;Samples;Min_cycle;Max_cycle;Signal;HPM_P1;HPM_P2
2022/01/22 00:02:06;;;;;;;116.00;103.22;;;7.00;99.90;;;;;;5077982;28;20060;-78
2022/01/22 00:04:34;;;;;;;112.28;100.07;;;7.00;99.90;;;;;;5094828;28;20068;-78
2022/01/22 00:07:02;;;;;;;;;;;7.00;99.90;;;;;;5095374;28;20052;-79
2022/01/22 00:09:36;;;;;;;116.30;100.03;;;7.00;99.90;;;;;;5095116;28;19929;-78
2022/01/22 00:12:10;;;;;;;110.78;98.78;;;7.00;99.90;;;;;;5077610;28;20560;-78
2022/01/22 00:14:36;;;;;;;113.28;100.78;;;7.00;99.90;;;;;;5094498;28;20098;-78
2022/01/22 00:17:04;;;;;;;113.25;100.80;;;7.00;99.90;;;;;;5094280;28;20058;-78
2022/01/22 00:19:31;;;;;;;110.85;98.30;;;7.00;99.90;;;;;;5094821;28;20119;-78
2022/01/22 00:21:59;;;;;;;113.20;101.47;;;7.00;99.90;;;;;;5094465;28;20059;-78
2022/01/22 00:24:26;;;;;;;115.90;103.53;;;7.00;99.90;;;;;;5094075;28;20063;-78
2022/01/22 00:26:53;;;;;;;;;;;7.00;99.90;;;;;;5076467;28;20530;-79
2022/01/22 00:29:21;;;;;;;;;;;7.00;99.90;;;;;;5095302;28;19951;-78
2022/01/22 00:31:48;;;;;;;113.75;101.25;;;7.00;99.90;;;;;;5095134;28;19966;-78
2022/01/22 00:34:15;;;;;;;115.50;101.50;;;7.00;99.90;;;;;;5094272;28;20049;-78
2022/01/22 00:36:42;;;;;;;114.18;101.82;;;7.00;99.90;;;;;;5077260;28;20059;-78
2022/01/22 00:39:09;;;;;;;110.80;99.20;;;7.00;99.90;;;;;;5076422;28;20123;-78
2022/01/22 00:41:37;;;;;;;112.38;100.30;;;7.00;99.90;;;;;;5077356;28;20080;-78
2022/01/22 00:44:04;;;;;;;;;;;7.00;99.90;;;;;;5077694;28;20059;-78
2022/01/22 00:46:32;;;;;;;114.40;101.65;;;7.00;99.90;;;;;;5077652;28;19924;-78
2022/01/22 00:48:59;;;;;;;113.88;101.85;;;7.00;99.90;;;;;;5076983;28;20084;-78
2022/01/22 00:51:30;;;;;;;114.55;101.55;;;7.00;99.90;;;;;;5094988;28;20520;-78
2022/01/22 00:57:27;;;;;;;116.45;102.32;;;7.00;99.90;;;;;;5015169;28;20050;-78
2022/01/22 00:59:55;;;;;;;114.90;102.25;;;7.00;99.90;;;;;;5016987;28;20541;-78
2022/01/22 01:02:24;;;;;;;113.88;101.53;;;7.10;99.90;;;;;;5017176;28;20054;-78
2022/01/22 01:04:51;;;;;;;115.15;103.13;;;7.10;99.90;;;;;;5035092;28;20050;-77
2022/01/22 01:07:18;;;;;;;116.13;100.57;;;7.10;99.90;;;;;;5016833;28;20141;-78
2022/01/22 01:09:46;;;;;;;112.03;100.00;;;7.10;99.90;;;;;;5017085;28;20069;-78
2022/01/22 01:12:13;;;;;;;113.85;101.53;;;7.10;99.90;;;;;;5016773;28;20836;-78
2022/01/22 01:14:47;;;;;;;113.43;100.80;;;7.10;99.90;;;;;;5016758;28;20125;-78
2022/01/22 01:17:35;;;;;;;114.38;101.95;;;7.10;99.90;;;;;;5000193;28;20955;-78
2022/01/22 01:33:57;;;;;;;112.18;100.20;;;7.10;99.90;;;;;;5016209;28;20104;-78
2022/01/22 01:36:26;;;;;;;113.32;101.40;;;7.20;99.90;;;;;;5000056;28;20054;-78
2022/01/22 01:38:57;;;;;;;113.82;101.65;;;7.20;99.90;;;;;;5016347;28;20550;-78
2022/01/22 01:41:32;;;;;;;113.13;100.70;;;7.20;99.90;;;;;;5033214;28;20053;-77
2022/01/22 01:43:59;;;;;;;115.75;100.53;;;7.20;99.90;;;;;;5016510;28;20057;-78
2022/01/22 01:46:51;;;;;;;113.15;101.30;;;7.20;99.90;;;;;;5016152;28;20161;-78
2022/01/22 01:49:18;;;;;;;113.80;101.53;;;7.20;99.90;;;;;;5016485;28;20054;-78
2022/01/22 01:51:48;;;;;;;114.65;102.05;;;7.20;99.90;;;;;;5015828;28;20137;-77
2022/01/22 01:54:30;;;;;;;113.32;101.70;;;7.20;99.90;;;;;;5016195;28;20050;-78
2022/01/22 01:59:45;;;;;;;112.40;100.17;;;7.20;99.90;;;;;;5016214;28;20881;-78
2022/01/22 02:02:18;;;;;;;112.28;100.15;;;7.30;99.90;;;;;;5016120;28;20050;-78
2022/01/22 02:04:45;;;;;;;113.25;101.07;;;7.20;99.90;;;;;;5032772;28;20057;-78
2022/01/22 02:07:14;;;;;;;114.80;102.38;;;7.30;99.90;;;;;;5015747;28;20568;-78
2022/01/22 02:09:47;;;;;;;113.70;102.03;;;7.20;99.90;;;;;;5015815;28;20468;-78
2022/01/22 02:12:20;;;;;;;113.70;101.32;;;7.30;99.90;;;;;;5016274;28;20050;-78
2022/01/22 02:23:37;;;;;;;112.50;100.95;;;7.30;99.90;;;;;;5016034;28;20050;-77
2022/01/22 02:26:06;;;;;;;112.57;100.95;;;7.30;99.90;;;;;;5015650;28;20507;-78
2022/01/22 02:28:46;;;;;;;111.95;100.35;;;7.30;99.90;;;;;;5015047;28;20069;-78
2022/01/22 02:31:20;;;;;;;111.75;100.00;;;7.30;99.90;;;;;;5015430;28;20101;-78
2022/01/22 02:34:03;;;;;;;112.93;101.43;;;7.30;99.90;;;;;;5014632;28;20053;-78
2022/01/22 02:36:35;;;;;;;113.20;101.65;;;7.30;99.90;;;;;;5015476;28;20054;-78
2022/01/22 02:39:09;;;;;;;111.93;100.63;;;7.30;99.90;;;;;;5015542;28;20046;-78
2022/01/22 02:41:41;;;;;;;111.40;99.50;;;7.30;99.90;;;;;;5032260;28;20046;-78
2022/01/22 02:44:11;;;;;;;110.88;99.80;;;7.40;99.90;;;;;;5015933;28;20046;-78
2022/01/22 02:46:42;;;;;;;110.05;98.75;;;7.40;99.90;;;;;;5015541;28;20058;-79
2022/01/22 02:49:09;;;;;;;110.05;98.95;;;7.40;99.90;;;;;;5015483;28;20081;-78
2022/01/22 02:51:37;;;;;;;111.72;100.00;;;7.40;99.90;;;;;;5015880;28;20046;-78
2022/01/22 02:54:07;;;;;;;109.65;98.65;;;7.40;99.90;;;;;;5015315;28;20112;-78
2022/01/22 02:56:34;;;;;;;111.03;99.97;;;7.40;99.90;;;;;;5014884;28;20046;-78
2022/01/22 02:59:03;;;;;;;114.40;102.60;;;7.40;99.90;;;;;;5052698;22;20050;-80
2022/01/22 03:01:30;;;;;;;109.18;98.28;;;7.40;99.90;;;;;;5093856;28;20135;-78
2022/01/22 03:03:57;;;;;;;107.78;97.28;;;7.40;99.90;;;;;;5116102;28;20452;-78
2022/01/22 03:06:25;;;;;;;108.03;96.88;;;7.50;99.90;;;;;;5099154;28;20076;-78
2022/01/22 03:08:51;;;;;;;;;;;7.40;99.90;;;;;;5099210;28;20121;-78
2022/01/22 03:11:24;;;;;;;111.45;100.35;;;7.40;99.90;;;;;;5099718;28;19955;-78
2022/01/22 03:14:31;;;;;;;108.95;98.20;;;7.40;99.90;;;;;;5116023;28;20051;-78
2022/01/22 03:16:58;;;;;;;110.55;99.65;;;7.50;99.90;;;;;;5098575;28;20094;-79
2022/01/22 03:19:56;;;;;;;108.85;97.97;;;7.40;99.90;;;;;;5099279;28;20051;-78
2022/01/22 03:22:27;;;;;;;110.80;99.90;;;7.50;99.90;;;;;;5098669;28;20048;-78
2022/01/22 03:27:40;;;;;;;108.75;98.05;;;7.50;99.90;;;;;;5115591;28;20049;-78
2022/01/22 03:30:08;;;;;;;108.22;97.43;;;7.50;99.90;;;;;;5098779;28;20074;-78
2022/01/22 03:32:40;;;;;;;110.05;98.93;;;7.50;99.90;;;;;;5098764;28;20101;-78
2022/01/22 03:35:12;;;;;;;107.68;97.13;;;7.50;99.90;;;;;;5115888;28;20500;-78
2022/01/22 03:37:40;;;;;;;106.72;95.93;;;7.50;99.90;;;;;;5098424;28;20101;-78
2022/01/22 03:40:09;;;;;;;109.18;98.57;;;7.50;99.90;;;;;;5115289;28;20417;-78
2022/01/22 03:42:36;;;;;;;108.57;97.68;;;7.50;99.90;;;;;;5115747;28;20127;-78
2022/01/22 03:45:09;;;;;;;109.63;98.47;;;7.50;99.90;;;;;;5098482;28;20071;-78
2022/01/22 03:47:38;;;;;;;110.68;99.55;;;7.50;99.90;;;;;;5098302;28;20492;-78
2022/01/22 03:50:08;;;;;;;108.22;97.40;;;7.50;99.90;;;;;;5098825;28;20139;-78
2022/01/22 03:52:36;;;;;;;109.32;98.15;;;7.50;99.90;;;;;;5098864;28;20048;-78
2022/01/22 03:55:03;;;;;;;108.45;97.55;;;7.50;99.90;;;;;;5097954;28;20548;-79
2022/01/22 03:57:49;;;;;;;109.28;98.07;;;7.50;99.90;;;;;;5132384;27;20125;-78
2022/01/22 04:00:18;;;;;;;108.38;97.78;;;7.50;99.90;;;;;;5097747;28;20098;-78
2022/01/22 04:05:44;;;;;;;110.45;99.28;;;7.50;99.90;;;;;;5097016;28;20044;-78
2022/01/22 04:08:14;;;;;;;112.03;101.25;;;7.50;99.90;;;;;;5098307;28;20055;-78
2022/01/22 04:10:42;;;;;;;110.90;100.07;;;7.50;99.90;;;;;;5116627;28;20044;-77
2022/01/22 04:13:12;;;;;;;109.60;98.60;;;7.50;99.90;;;;;;5115118;27;20044;-79
2022/01/22 04:15:41;;;;;;;109.25;98.63;;;7.50;99.90;;;;;;5098288;28;20071;-79
2022/01/22 04:26:37;;;;;;;112.15;101.07;;;7.50;99.90;;;;;;5023763;28;20037;-78
2022/01/22 04:29:05;;;;;;;108.75;98.05;;;7.50;99.90;;;;;;5116249;28;20112;-78
2022/01/22 04:31:33;;;;;;;109.38;98.60;;;7.50;99.90;;;;;;5114939;28;20052;-78
2022/01/22 04:34:01;;;;;;;110.90;100.13;;;7.50;99.90;;;;;;5114908;28;20060;-78
2022/01/22 04:36:28;;;;;;;109.18;98.43;;;7.50;99.90;;;;;;5115786;27;20059;-78
2022/01/22 04:38:55;;;;;;;108.50;97.70;;;7.50;99.90;;;;;;5114565;28;20052;-78
2022/01/22 04:41:22;;;;;;;;;;;7.50;99.90;;;;;;5115543;28;20114;-78
2022/01/22 04:43:55;;;;;;;;;;;7.50;99.90;;;;;;5115625;28;20022;-79
2022/01/22 04:46:35;;;;;;;111.15;100.15;;;7.50;99.90;;;;;;5097882;28;19928;-78
2022/01/22 04:49:10;;;;;;;109.13;98.53;;;7.50;99.90;;;;;;5114103;28;20101;-79
2022/01/22 04:57:09;;;;;;;108.57;97.90;;;7.50;99.90;;;;;;5097012;28;20488;-78
2022/01/22 04:59:36;;;;;;;107.60;96.88;;;7.50;99.90;;;;;;5096903;28;20387;-78
2022/01/22 05:02:04;;;;;;;108.20;97.63;;;7.50;99.90;;;;;;5097303;28;20040;-78
2022/01/22 05:04:52;;;;;;;109.53;98.72;;;7.50;99.90;;;;;;5131591;27;20079;-78
2022/01/22 05:07:36;;;;;;;108.47;98.07;;;7.50;99.90;;;;;;5114554;28;20048;-78
2022/01/22 05:10:10;;;;;;;111.22;100.15;;;7.50;99.90;;;;;;5097171;28;20078;-78
2022/01/22 05:12:38;;;;;;;110.95;100.25;;;7.50;99.90;;;;;;5114105;28;20052;-78
2022/01/22 05:15:07;;;;;;;108.78;98.22;;;7.50;99.90;;;;;;5097221;28;20114;-78
2022/01/22 05:17:37;;;;;;;112.15;101.28;;;7.50;99.90;;;;;;5096791;28;20054;-78
2022/01/22 05:20:19;;;;;;;112.20;101.50;;;7.50;99.90;;;;;;5097306;28;20408;-78
2022/01/22 05:22:55;;;;;;;110.63;99.93;;;7.50;99.90;;;;;;5114004;28;20098;-78
2022/01/22 05:25:28;;;;;;;109.72;99.13;;;7.50;99.90;;;;;;5113433;27;20048;-78
2022/01/22 05:28:13;;;;;;;109.45;98.85;;;7.50;99.90;;;;;;5096412;28;20510;-78
2022/01/22 05:31:05;;;;;;;109.80;99.10;;;7.50;99.90;;;;;;5131039;27;20052;-78
2022/01/22 05:36:59;;;;;;;109.88;99.18;;;7.50;99.90;;;;;;5096802;28;20082;-78
2022/01/22 05:39:32;;;;;;;109.55;98.93;;;7.40;99.90;;;;;;5097303;28;20045;-79
2022/01/22 05:42:02;;;;;;;110.70;99.88;;;7.50;99.90;;;;;;5131103;27;20060;-78
2022/01/22 05:44:31;;;;;;;108.55;97.72;;;7.40;99.90;;;;;;5113812;28;20098;-78
2022/01/22 05:47:02;;;;;;;109.40;98.55;;;7.50;99.90;;;;;;5113610;28;20044;-79
2022/01/22 05:49:32;;;;;;;111.03;100.35;;;7.50;99.90;;;;;;5113875;28;20597;-78
2022/01/22 05:52:03;;;;;;;109.47;98.80;;;7.50;99.90;;;;;;5113925;28;20133;-78
2022/01/22 05:54:49;;;;;;;110.22;99.43;;;7.50;99.90;;;;;;5113694;28;20048;-78
2022/01/22 06:00:06;;;;;;;109.90;99.18;;;7.40;99.90;;;;;;5095879;28;20047;-78
2022/01/22 06:02:46;;;;;;;111.85;101.05;;;7.50;99.90;;;;;;5130819;27;20055;-78
2022/01/22 06:05:16;;;;;;;111.15;100.30;;;7.40;99.90;;;;;;5096414;28;20135;-78
2022/01/22 06:07:44;;;;;;;;;;;7.50;99.90;;;;;;5113924;28;20048;-78
2022/01/22 06:10:18;;;;;;;111.47;100.45;;;7.50;99.90;;;;;;5096862;28;19928;-78
2022/01/22 06:12:58;;;;;;;111.35;100.75;;;7.40;99.90;;;;;;5114580;27;20432;-78
2022/01/22 06:15:29;;;;;;;110.28;99.50;;;7.40;99.90;;;;;;5113200;28;20103;-78
2022/01/22 06:18:14;;;;;;;108.80;98.20;;;7.40;99.90;;;;;;5130339;27;20106;-79
2022/01/22 06:20:43;;;;;;;109.43;98.78;;;7.40;99.90;;;;;;5096110;28;20101;-78
2022/01/22 06:23:14;;;;;;;107.63;96.78;;;7.40;99.90;;;;;;5096398;28;20056;-78
2022/01/22 06:25:42;;;;;;;110.20;99.03;;;7.40;99.90;;;;;;5096222;28;20048;-78
2022/01/22 06:31:44;;;;;;;108.78;97.93;;;7.40;99.90;;;;;;5050108;28;20498;-78
2022/01/22 06:34:12;;;;;;;108.03;97.13;;;7.40;99.90;;;;;;5035562;28;20050;-78
2022/01/22 06:36:42;;;;;;;109.75;98.70;;;7.40;99.90;;;;;;5068850;28;20526;-78
2022/01/22 06:39:13;;;;;;;112.07;101.10;;;7.40;99.90;;;;;;5055636;28;20096;-78
2022/01/22 06:41:48;;;;;;;109.07;98.20;;;7.40;99.90;;;;;;5056925;28;20061;-78
2022/01/22 06:44:34;;;;;;;109.07;98.15;;;7.40;99.90;;;;;;5072450;28;20049;-78
2022/01/22 06:47:25;;;;;;;109.53;98.50;;;7.40;99.90;;;;;;5038075;28;20060;-78
2022/01/22 06:49:58;;;;;;;109.53;98.57;;;7.40;99.90;;;;;;5039039;28;20062;-78
2022/01/22 06:52:43;;;;;;;112.45;100.95;;;7.40;99.90;;;;;;5072320;28;20096;-79
2022/01/22 06:55:30;;;;;;;110.93;100.10;;;7.40;99.90;;;;;;5038694;28;20046;-78
2022/01/22 06:57:57;;;;;;;108.90;98.18;;;7.40;99.90;;;;;;5038050;28;20049;-78
2022/01/22 07:00:29;;;;;;;108.70;98.30;;;7.40;99.90;;;;;;5055234;28;20053;-78
2022/01/22 07:03:09;;;;;;;108.40;97.72;;;7.40;99.90;;;;;;5038318;28;20476;-78
2022/01/22 07:05:36;;;;;;;;;;;7.40;99.90;;;;;;5039223;28;20136;-78
2022/01/22 07:08:16;;;;;;;109.40;98.53;;;7.40;99.90;;;;;;5022168;28;19931;-78
2022/01/22 07:10:47;;;;;;;109.97;99.38;;;7.30;99.90;;;;;;5038355;28;20136;-78
2022/01/22 07:13:15;;;;;;;109.93;99.32;;;7.40;99.90;;;;;;5054972;28;20519;-78
2022/01/22 07:15:42;;;;;;;110.53;100.03;;;7.40;99.90;;;;;;5021639;28;20060;-78
2022/01/22 07:18:15;;;;;;;110.82;100.32;;;7.30;99.90;;;;;;5037906;28;20430;-78
2022/01/22 07:20:44;;;;;;;110.53;100.03;;;7.30;99.90;;;;;;5038335;28;20076;-78
2022/01/22 07:23:19;;;;;;;112.63;102.13;;;7.30;99.90;;;;;;5054580;28;20404;-78
2022/01/22 07:26:03;;;;;;;109.68;99.22;;;7.30;99.90;;;;;;5054804;28;20804;-79
2022/01/22 07:28:39;;;;;;;112.00;101.50;;;7.40;99.90;;;;;;5037401;28;20053;-79
2022/01/22 07:31:08;;;;;;;109.53;99.05;;;7.40;99.90;;;;;;5033862;28;20050;-78
2022/01/22 07:33:37;;;;;;;111.65;100.97;;;7.40;99.90;;;;;;5050892;28;20054;-78
2022/01/22 07:36:06;;;;;;;111.25;100.65;;;7.40;99.90;;;;;;5050836;28;20065;-79
2022/01/22 07:38:37;;;;;;;112.68;101.88;;;7.40;99.90;;;;;;5049739;28;20060;-78
2022/01/22 07:41:07;;;;;;;112.60;101.88;;;7.40;99.90;;;;;;5036815;28;20511;-78
2022/01/22 07:43:37;;;;;;;111.88;100.72;;;7.40;99.90;;;;;;5019992;28;20131;-78
2022/01/22 07:46:28;;;;;;;111.63;100.85;;;7.40;99.90;;;;;;5067194;28;20057;-78
2022/01/22 07:49:22;;;;;;;113.60;102.75;;;7.40;99.90;;;;;;5033302;28;20127;-78
2022/01/22 07:51:52;;;;;;;112.82;101.57;;;7.40;99.90;;;;;;5036539;28;20665;-79
2022/01/22 07:54:21;;;;;;;112.53;101.80;;;7.40;99.90;;;;;;5063892;28;20050;-78
2022/01/22 07:56:49;;;;;;;115.13;104.32;;;7.40;99.90;;;;;;5028603;28;20136;-77
2022/01/22 07:59:17;;;;;;;113.32;102.55;;;7.40;99.90;;;;;;5040760;28;20059;-77
2022/01/22 08:01:49;;;;;;;113.10;102.32;;;7.40;99.90;;;;;;5037993;28;20052;-78
2022/01/22 08:04:25;;;;;;;112.37;101.53;;;7.40;99.90;;;;;;5054393;28;20052;-81
2022/01/22 08:07:12;;;;;;;111.25;100.78;;;7.40;99.90;;;;;;5042579;28;20896;-80
2022/01/22 08:09:58;;;;;;;;;;;7.40;99.90;;;;;;5045966;28;20053;-81
2022/01/22 08:12:51;;;;;;;112.43;101.55;;;7.40;99.90;;;;;;5050224;28;19924;-82
2022/01/22 08:15:19;;;;;;;112.85;101.97;;;7.40;99.90;;;;;;5047775;28;20049;-81
2022/01/22 08:17:47;;;;;;;111.97;101.22;;;7.40;99.90;;;;;;5019809;28;20439;-79
2022/01/22 08:20:20;;;;;;;112.05;101.25;;;7.40;99.90;;;;;;5036240;28;20526;-81
2022/01/22 08:22:54;;;;;;;113.03;102.20;;;7.40;99.90;;;;;;5034315;28;20060;-80
2022/01/22 08:25:44;;;;;;;113.07;102.30;;;7.40;99.90;;;;;;5033217;28;20065;-80
2022/01/22 08:31:21;;;;;;;114.05;102.93;;;7.40;99.90;;;;;;5026166;28;20045;-79
2022/01/22 08:36:36;;;;;;;110.97;100.10;;;7.40;99.90;;;;;;4996498;28;20076;-78
2022/01/22 08:39:04;;;;;;;;;;;7.30;99.90;;;;;;5043937;28;20061;-78
2022/01/22 08:41:31;;;;;;;113.05;101.97;;;7.30;99.90;;;;;;5046141;28;19931;-78
2022/01/22 08:44:00;;;;;;;113.10;102.28;;;7.30;99.90;;;;;;5026999;28;20053;-78
2022/01/22 08:46:28;;;;;;;113.32;102.47;;;7.30;99.90;;;;;;5049841;28;20156;-78
2022/01/22 08:48:56;;;;;;;112.45;101.53;;;7.30;99.90;;;;;;5035818;28;20061;-78
2022/01/22 08:51:26;;;;;;;114.38;103.22;;;7.30;99.90;;;;;;5049293;28;20053;-78
2022/01/22 08:53:55;;;;;;;113.07;102.38;;;7.30;99.90;;;;;;5037637;28;20053;-81
2022/01/22 08:56:23;;;;;;;114.80;103.80;;;7.30;99.90;;;;;;5044511;28;20069;-85
2022/01/22 08:58:50;;;;;;;114.20;103.30;;;7.30;99.90;;;;;;5056334;28;20052;-84
2022/01/22 09:01:31;;;;;;;112.32;101.55;;;7.30;99.90;;;;;;5057679;28;20130;-87
2022/01/22 09:04:03;;;;;;;113.93;102.88;;;7.30;99.90;;;;;;5035439;28;20049;-80
2022/01/22 09:06:40;;;;;;;114.53;103.40;;;7.30;99.90;;;;;;5051647;28;20037;-81
2022/01/22 09:09:26;;;;;;;112.55;101.55;;;7.30;99.90;;;;;;5039978;28;20053;-80
2022/01/22 09:11:54;;;;;;;113.88;102.88;;;7.30;99.90;;;;;;5035977;28;20077;-79
2022/01/22 09:14:39;;;;;;;112.50;101.57;;;7.30;99.90;;;;;;5036141;28;20140;-79
2022/01/22 09:17:09;;;;;;;113.57;102.65;;;7.30;99.90;;;;;;5019988;28;20054;-79
2022/01/22 09:19:36;;;;;;;114.15;103.32;;;7.30;99.90;;;;;;5018444;28;20050;-79
2022/01/22 09:22:09;;;;;;;113.80;102.75;;;7.30;99.90;;;;;;5036506;28;20045;-79
2022/01/22 09:24:38;;;;;;;114.13;102.60;;;7.30;99.90;;;;;;5019972;28;20811;-78
2022/01/22 09:27:06;;;;;;;;;;;7.30;99.90;;;;;;5036755;28;20603;-80
2022/01/22 09:29:35;;;;;;;112.95;101.85;;;7.30;99.90;;;;;;5020220;28;19979;-78
2022/01/22 09:32:03;;;;;;;113.88;102.68;;;7.30;99.90;;;;;;5019366;28;20965;-78
2022/01/22 09:35:08;;;;;;;111.55;100.63;;;7.30;99.90;;;;;;5031388;28;20530;-78
2022/01/22 09:37:58;;;;;;;115.90;104.35;;;7.30;99.90;;;;;;5007664;28;20140;-80
2022/01/22 09:40:52;;;;;;;113.97;102.28;;;7.30;99.90;;;;;;5053778;28;20151;-79
2022/01/22 09:43:31;;;;;;;115.78;104.07;;;7.30;99.90;;;;;;5038155;28;20137;-81
2022/01/22 09:46:16;;;;;;;114.32;102.90;;;7.20;99.90;;;;;;5063263;28;20561;-82
2022/01/22 09:48:51;;;;;;;113.72;102.50;;;7.30;99.90;;;;;;5052199;28;20053;-82
2022/01/22 09:51:31;;;;;;;114.43;102.78;;;7.30;99.90;;;;;;5035998;28;20061;-81
2022/01/22 09:54:24;;;;;;;114.10;102.57;;;7.20;99.90;;;;;;5038310;28;20053;-80
2022/01/22 09:57:06;;;;;;;114.00;102.65;;;7.30;99.90;;;;;;5051043;28;20052;-79
2022/01/22 09:59:41;;;;;;;;;;;7.30;99.90;;;;;;5056224;28;20045;-79
2022/01/22 10:02:18;;;;;;;113.47;102.07;;;7.30;99.90;;;;;;5056188;28;20056;-78
2022/01/22 10:04:48;;;;;;;113.90;102.15;;;7.30;99.90;;;;;;5055408;28;20127;-80
2022/01/22 10:07:53;;;;;;;116.82;105.07;;;7.30;99.90;;;;;;5037672;28;20052;-79
2022/01/22 10:10:39;;;;;;;115.97;104.20;;;7.30;99.90;;;;;;5029528;28;20081;-81
2022/01/22 10:13:38;;;;;;;115.78;104.35;;;7.30;99.90;;;;;;5030134;28;20045;-81
2022/01/22 10:16:23;;;;;;;116.80;105.47;;;7.30;99.90;;;;;;5055631;28;20055;-82
2022/01/22 10:19:08;;;;;;;115.55;104.32;;;7.30;99.90;;;;;;5073718;28;20499;-81
2022/01/22 10:21:36;;;;;;;113.88;102.40;;;7.30;99.90;;;;;;5054473;28;20080;-80
2022/01/22 10:24:28;;;;;;;115.63;104.28;;;7.30;99.90;;;;;;5055601;28;20057;-80
2022/01/22 10:27:21;;;;;;;113.57;102.47;;;7.30;99.90;;;;;;5055468;28;20103;-80
2022/01/22 10:29:53;;;;;;;115.57;103.55;;;7.30;99.90;;;;;;5044769;28;20057;-81
2022/01/22 10:32:23;;;;;;;114.78;103.28;;;7.30;99.90;;;;;;5034623;28;20100;-82
2022/01/22 10:35:16;;;;;;;113.65;102.35;;;7.40;99.90;;;;;;5044056;28;20060;-82
2022/01/22 10:38:04;;;;;;;114.72;103.32;;;7.40;99.90;;;;;;5043435;28;20132;-82
2022/01/22 10:40:34;;;;;;;114.82;103.22;;;7.40;99.90;;;;;;5050285;28;20053;-82
2022/01/22 10:43:28;;;;;;;114.60;103.30;;;7.40;99.90;;;;;;5035634;28;20511;-82
2022/01/22 10:46:50;;;;;;;113.25;102.03;;;7.40;99.90;;;;;;5036023;28;20053;-81
2022/01/22 10:49:19;;;;;;;115.00;103.40;;;7.40;99.90;;;;;;5024265;28;20073;-81
2022/01/22 10:51:54;;;;;;;112.22;101.15;;;7.40;99.90;;;;;;5039596;28;20052;-80
2022/01/22 10:54:23;;;;;;;113.85;102.13;;;7.40;99.90;;;;;;5022540;28;20046;-80
2022/01/22 10:56:52;;;;;;;115.95;104.13;;;7.40;99.90;;;;;;5040726;28;20049;-81
2022/01/22 10:59:20;;;;;;;114.65;103.07;;;7.40;99.90;;;;;;5041583;28;20058;-82
2022/01/22 11:01:51;;;;;;;114.13;102.95;;;7.40;99.90;;;;;;5040465;28;20490;-80
2022/01/22 11:04:22;;;;;;;114.03;102.75;;;7.40;99.90;;;;;;5040523;28;20135;-80
2022/01/22 11:06:52;;;;;;;113.72;102.07;;;7.40;99.90;;;;;;5040642;28;20057;-80
2022/01/22 11:09:21;;;;;;;113.95;102.45;;;7.40;99.90;;;;;;5036699;28;20418;-79
2022/01/22 11:11:48;;;;;;;114.90;103.55;;;7.40;99.90;;;;;;5034231;28;20107;-80
2022/01/22 11:14:17;;;;;;;113.15;102.05;;;7.40;99.90;;;;;;5034406;28;20487;-81
2022/01/22 11:16:45;;;;;;;112.63;101.57;;;7.50;99.90;;;;;;5034858;28;20092;-79
2022/01/22 11:19:15;;;;;;;115.10;103.97;;;7.50;99.90;;;;;;5034294;28;20055;-83
2022/01/22 11:21:47;;;;;;;114.85;103.40;;;7.50;99.90;;;;;;5034302;28;20136;-81
2022/01/22 11:24:15;;;;;;;114.60;103.00;;;7.50;99.90;;;;;;5037193;28;20042;-80
2022/01/22 11:26:46;;;;;;;115.53;103.78;;;7.50;99.90;;;;;;5038406;28;20057;-77
2022/01/22 11:29:15;;;;;;;112.88;101.65;;;7.50;99.90;;;;;;5038456;28;20053;-77
2022/01/22 11:31:45;;;;;;;114.50;102.75;;;7.50;99.90;;;;;;5023313;28;21020;-77
2022/01/22 11:34:14;;;;;;;115.60;103.90;;;7.50;99.90;;;;;;5037983;28;20056;-80
2022/01/22 11:36:48;;;;;;;115.63;104.10;;;7.50;99.90;;;;;;5037960;28;20049;-82
2022/01/22 11:39:21;;;;;;;115.15;103.75;;;7.50;99.90;;;;;;5021695;28;20050;-77
2022/01/22 11:41:54;;;;;;;114.97;103.43;;;7.50;99.90;;;;;;5043116;28;20661;-77
2022/01/22 11:44:26;;;;;;;115.47;103.90;;;7.50;99.90;;;;;;5021701;28;20045;-76
2022/01/22 11:47:09;;;;;;;116.53;104.65;;;7.50;99.90;;;;;;5061530;28;20080;-78
2022/01/22 11:49:37;;;;;;;115.95;104.00;;;7.50;99.90;;;;;;5037571;28;20054;-77
2022/01/22 11:52:24;;;;;;;114.78;103.45;;;7.50;99.90;;;;;;5053966;28;20093;-77
2022/01/22 11:54:53;;;;;;;116.63;105.03;;;7.40;99.90;;;;;;5037689;28;20046;-77
2022/01/22 11:57:22;;;;;;;116.82;105.28;;;7.40;99.90;;;;;;5039298;28;20081;-77
2022/01/22 11:59:50;;;;;;;116.47;104.70;;;7.40;99.90;;;;;;5057514;28;20053;-77
2022/01/22 12:02:18;;;;;;;115.03;103.20;;;7.40;99.90;;;;;;5041241;28;20045;-77
2022/01/22 12:04:52;;;;;;;116.80;105.20;;;7.40;99.90;;;;;;5057441;28;20037;-77
2022/01/22 12:07:25;;;;;;;117.00;104.78;;;7.40;99.90;;;;;;5057057;28;20511;-77
2022/01/22 12:16:12;;;;;;;117.18;105.57;;;7.50;99.90;;;;;;5056585;28;20068;-77
2022/01/22 12:18:47;;;;;;;117.93;106.20;;;7.50;99.90;;;;;;5056403;28;20057;-79
2022/01/22 12:21:35;;;;;;;117.90;106.10;;;7.50;99.90;;;;;;5056687;28;20051;-82
2022/01/22 12:24:05;;;;;;;118.45;106.43;;;7.50;99.90;;;;;;5056910;28;20057;-79
2022/01/22 12:26:46;;;;;;;116.40;104.90;;;7.50;99.90;;;;;;5056783;28;20041;-80
2022/01/22 12:29:43;;;;;;;117.28;105.60;;;7.50;99.90;;;;;;5056217;28;20055;-77
2022/01/22 12:32:14;;;;;;;117.97;105.95;;;7.50;99.90;;;;;;5056934;28;20179;-78
2022/01/22 12:35:16;;;;;;;116.18;104.45;;;7.50;99.90;;;;;;5039606;28;20057;-77
2022/01/22 12:37:49;;;;;;;116.03;104.32;;;7.50;99.90;;;;;;5055555;28;20049;-77
2022/01/22 12:40:30;;;;;;;116.00;104.57;;;7.50;99.90;;;;;;5058706;28;20054;-77
2022/01/22 12:43:07;;;;;;;115.75;104.15;;;7.50;99.90;;;;;;5016336;28;20439;-78
2022/01/22 12:45:36;;;;;;;116.07;104.45;;;7.50;99.90;;;;;;5031964;28;20054;-77
2022/01/22 12:48:04;;;;;;;116.47;104.43;;;7.50;99.90;;;;;;5016549;28;20042;-77
2022/01/22 12:50:36;;;;;;;114.78;103.63;;;7.60;99.90;;;;;;5065202;28;20053;-77
2022/01/22 12:53:13;;;;;;;115.07;103.82;;;7.50;99.90;;;;;;5069993;28;20139;-77
2022/01/22 12:58:39;;;;;;;116.13;103.70;;;7.60;99.90;;;;;;5034430;28;20050;-78
2022/01/22 13:01:12;;;;;;;117.40;105.50;;;7.60;99.90;;;;;;5034304;28;20143;-77
2022/01/22 13:03:42;;;;;;;115.68;104.45;;;7.60;99.90;;;;;;5032248;28;20053;-79
2022/01/22 13:06:10;;;;;;;118.18;106.22;;;7.70;99.90;;;;;;5033884;28;20045;-79
2022/01/22 13:08:57;;;;;;;115.90;104.13;;;7.70;99.90;;;;;;5067410;28;20816;-79
2022/01/22 13:11:43;;;;;;;115.40;103.90;;;7.70;99.90;;;;;;5067950;28;20049;-81
2022/01/22 13:14:10;;;;;;;114.80;103.70;;;7.70;99.90;;;;;;4974749;28;20049;-81
2022/01/22 13:16:45;;;;;;;;;;;7.70;99.90;;;;;;5028574;28;20093;-81
2022/01/22 13:19:12;;;;;;;113.75;102.55;;;7.70;99.90;;;;;;4998027;28;20384;-81
2022/01/22 13:21:48;;;;;;;;;;;7.70;99.90;;;;;;4934184;28;20058;-81
2022/01/22 13:24:15;;;;;;;115.15;103.53;;;7.70;99.90;;;;;;5021003;28;19968;-78
2022/01/22 13:26:52;;;;;;;115.82;104.18;;;7.70;99.90;;;;;;5028233;28;20065;-79
2022/01/22 13:29:23;;;;;;;117.10;105.40;;;7.70;99.90;;;;;;5009473;28;20531;-77
2022/01/22 13:32:24;;;;;;;115.50;104.00;;;7.70;99.90;;;;;;4999454;28;20047;-79
2022/01/22 13:35:11;;;;;;;116.80;105.15;;;7.70;99.90;;;;;;4995532;28;20055;-78
2022/01/22 13:38:31;;;;;;;115.38;103.88;;;7.70;99.90;;;;;;4996860;28;20137;-79
2022/01/22 13:45:04;;;;;;;116.68;104.53;;;7.70;99.90;;;;;;4992966;28;20113;-79
2022/01/22 13:49:29;;;;;;;115.82;104.22;;;7.70;99.90;;;;;;4997394;28;20050;-84
2022/01/22 13:51:57;;;;;;;116.30;104.60;;;7.70;99.90;;;;;;4998980;28;20073;-81
2022/01/22 13:54:34;;;;;;;115.05;103.68;;;7.70;99.90;;;;;;4986166;28;20057;-80
2022/01/22 13:57:04;;;;;;;;;;;7.70;99.90;;;;;;4996065;28;20043;-81
2022/01/22 13:59:35;;;;;;;115.13;103.55;;;7.70;99.90;;;;;;5000757;28;19949;-81
2022/01/22 14:02:27;;;;;;;116.05;104.57;;;7.70;99.90;;;;;;4997116;28;20063;-80
2022/01/22 14:04:56;;;;;;;114.60;103.05;;;7.70;99.90;;;;;;5010334;28;20509;-80
2022/01/22 14:07:26;;;;;;;115.32;103.82;;;7.70;99.90;;;;;;5001244;28;20177;-81
2022/01/22 14:09:58;;;;;;;113.13;102.05;;;7.70;99.90;;;;;;5001404;28;20519;-80
2022/01/22 14:12:28;;;;;;;113.85;102.65;;;7.70;99.90;;;;;;5003595;28;20058;-80
2022/01/22 14:14:58;;;;;;;116.45;105.05;;;7.70;99.90;;;;;;5026629;28;20508;-79
2022/01/22 14:17:30;;;;;;;119.05;107.53;;;7.70;99.90;;;;;;5001187;28;20062;-79
2022/01/22 14:20:07;;;;;;;116.97;105.20;;;7.70;99.90;;;;;;4998347;28;20149;-79